Time,TemperatureF,DewpointF,PressureIn,WindDirection,WindDirectionDegrees,WindSpeedMPH,WindSpeedGustMPH,Humidity,HourlyPrecipIn,Conditions,Clouds,dailyrainin,SolarRadiationWatts/m^2,SoftwareType,DateUTC
2013-07-06 00:02:00,72.0,58.0,-100.00,South,178,5.0,14.0,62,0.00,,,0.00,0.000000,,2013-07-06 05:02:00,
2013-07-06 00:22:00,72.0,58.0,-100.00,South,178,5.0,14.0,62,0.00,,,0.00,0.000000,,2013-07-06 05:22:00,
2013-07-06 00:34:00,72.0,58.0,-100.00,South,178,5.0,14.0,62,0.00,,,0.00,0.000000,,2013-07-06 05:34:00,
2013-07-06 00:43:00,72.0,58.0,-100.00,South,178,5.0,14.0,62,0.00,,,0.00,0.000000,,2013-07-06 05:43:00,
2013-07-06 00:53:00,72.0,58.0,-100.00,South,178,5.0,14.0,62,0.00,,,0.00,0.000000,,2013-07-06 05:53:00,
2013-07-06 01:02:00,71.0,59.0,-100.00,South,176,5.0,12.0,65,0.00,,,0.00,0.000000,,2013-07-06 06:02:00,
2013-07-06 01:22:00,71.0,59.0,-100.00,South,176,5.0,12.0,65,0.00,,,0.00,0.000000,,2013-07-06 06:22:00,
2013-07-06 01:34:00,71.0,59.0,-100.00,South,176,5.0,12.0,65,0.00,,,0.00,0.000000,,2013-07-06 06:34:00,
2013-07-06 01:43:00,71.0,59.0,-100.00,South,176,5.0,12.0,65,0.00,,,0.00,0.000000,,2013-07-06 06:43:00,
2013-07-06 01:53:00,71.0,59.0,-100.00,South,176,5.0,12.0,65,0.00,,,0.00,0.000000,,2013-07-06 06:53:00,
2013-07-06 02:02:00,70.0,59.0,-100.00,South,174,6.0,12.0,68,0.00,,,0.00,0.000000,,2013-07-06 07:02:00,
2013-07-06 02:22:00,70.0,59.0,-100.00,South,174,6.0,12.0,68,0.00,,,0.00,0.000000,,2013-07-06 07:22:00,
2013-07-06 02:33:00,70.0,59.0,-100.00,South,174,6.0,12.0,68,0.00,,,0.00,0.000000,,2013-07-06 07:33:00,
2013-07-06 02:44:00,70.0,59.0,-100.00,South,174,6.0,12.0,68,0.00,,,0.00,0.000000,,2013-07-06 07:44:00,
2013-07-06 02:52:00,70.0,59.0,-100.00,South,174,6.0,12.0,68,0.00,,,0.00,0.000000,,2013-07-06 07:52:00,
2013-07-06 03:02:00,70.0,60.0,-100.00,South,186,5.0,13.0,70,0.00,,,0.00,0.000000,,2013-07-06 08:02:00,
2013-07-06 03:22:00,70.0,60.0,-100.00,South,186,5.0,13.0,70,0.00,,,0.00,0.000000,,2013-07-06 08:22:00,
2013-07-06 03:34:00,70.0,60.0,-100.00,South,186,5.0,13.0,70,0.00,,,0.00,0.000000,,2013-07-06 08:34:00,
2013-07-06 03:43:00,70.0,60.0,-100.00,South,186,5.0,13.0,70,0.00,,,0.00,0.000000,,2013-07-06 08:43:00,
2013-07-06 03:54:00,70.0,60.0,-100.00,South,186,5.0,13.0,70,0.00,,,0.00,0.000000,,2013-07-06 08:54:00,
2013-07-06 04:02:00,69.0,60.0,-100.00,South,182,4.0,12.0,73,0.00,,,0.00,0.000000,,2013-07-06 09:02:00,
2013-07-06 04:22:00,69.0,60.0,-100.00,South,182,4.0,12.0,73,0.00,,,0.00,0.000000,,2013-07-06 09:22:00,
2013-07-06 04:34:00,69.0,60.0,-100.00,South,182,4.0,12.0,73,0.00,,,0.00,0.000000,,2013-07-06 09:34:00,
2013-07-06 04:43:00,69.0,60.0,-100.00,South,182,4.0,12.0,73,0.00,,,0.00,0.000000,,2013-07-06 09:43:00,
2013-07-06 04:53:00,69.0,60.0,-100.00,South,182,4.0,12.0,73,0.00,,,0.00,0.000000,,2013-07-06 09:53:00,
2013-07-06 05:22:00,67.0,59.0,-100.00,SSE,164,4.0,9.0,76,0.00,,,0.00,0.000000,,2013-07-06 10:22:00,
2013-07-06 05:33:00,67.0,59.0,-100.00,SSE,164,4.0,9.0,76,0.00,,,0.00,0.000000,,2013-07-06 10:33:00,
2013-07-06 05:43:00,67.0,59.0,-100.00,SSE,164,4.0,9.0,76,0.00,,,0.00,0.000000,,2013-07-06 10:43:00,
2013-07-06 05:53:00,67.0,59.0,-100.00,SSE,164,4.0,9.0,76,0.00,,,0.00,0.000000,,2013-07-06 10:53:00,
2013-07-06 06:01:00,67.0,59.0,-100.00,SSE,164,4.0,9.0,76,0.00,,,0.00,0.000000,,2013-07-06 11:01:00,
2013-07-06 06:22:00,67.0,60.0,-100.00,South,170,5.0,9.0,78,0.00,,,0.00,12.000000,,2013-07-06 11:22:00,
2013-07-06 06:33:00,67.0,60.0,-100.00,South,170,5.0,9.0,78,0.00,,,0.00,12.000000,,2013-07-06 11:33:00,
2013-07-06 06:43:00,67.0,60.0,-100.00,South,170,5.0,9.0,78,0.00,,,0.00,12.000000,,2013-07-06 11:43:00,
2013-07-06 06:53:00,67.0,60.0,-100.00,South,170,5.0,9.0,78,0.00,,,0.00,12.000000,,2013-07-06 11:53:00,
2013-07-06 07:01:00,67.0,60.0,-100.00,South,170,5.0,9.0,78,0.00,,,0.00,12.000000,,2013-07-06 12:01:00,
2013-07-06 07:22:00,69.0,61.0,-100.00,SSE,168,5.0,12.0,75,0.00,,,0.00,88.000000,,2013-07-06 12:22:00,
2013-07-06 07:33:00,69.0,61.0,-100.00,SSE,168,5.0,12.0,75,0.00,,,0.00,88.000000,,2013-07-06 12:33:00,
2013-07-06 07:43:00,69.0,61.0,-100.00,SSE,168,5.0,12.0,75,0.00,,,0.00,88.000000,,2013-07-06 12:43:00,
2013-07-06 07:52:00,69.0,61.0,-100.00,SSE,168,5.0,12.0,75,0.00,,,0.00,88.000000,,2013-07-06 12:52:00,
2013-07-06 08:01:00,69.0,61.0,-100.00,SSE,168,5.0,12.0,75,0.00,,,0.00,88.000000,,2013-07-06 13:01:00,
2013-07-06 08:02:00,72.0,62.0,-100.00,South,179,5.0,12.0,70,0.00,,,0.00,257.000000,,2013-07-06 13:02:00,
2013-07-06 08:33:00,72.0,62.0,-100.00,South,179,5.0,12.0,70,0.00,,,0.00,257.000000,,2013-07-06 13:33:00,
2013-07-06 08:43:00,72.0,62.0,-100.00,South,179,5.0,12.0,70,0.00,,,0.00,257.000000,,2013-07-06 13:43:00,
2013-07-06 08:52:00,72.0,62.0,-100.00,South,179,5.0,12.0,70,0.00,,,0.00,257.000000,,2013-07-06 13:52:00,
2013-07-06 09:02:00,75.0,63.0,-100.00,South,190,7.0,17.0,66,0.00,,,0.00,436.000000,,2013-07-06 14:02:00,
2013-07-06 09:22:00,75.0,63.0,-100.00,South,190,7.0,17.0,66,0.00,,,0.00,436.000000,,2013-07-06 14:22:00,
2013-07-06 09:34:00,75.0,63.0,-100.00,South,190,7.0,17.0,66,0.00,,,0.00,436.000000,,2013-07-06 14:34:00,
2013-07-06 09:42:00,75.0,63.0,-100.00,South,190,7.0,17.0,66,0.00,,,0.00,436.000000,,2013-07-06 14:42:00,
2013-07-06 09:53:00,75.0,63.0,-100.00,South,190,7.0,17.0,66,0.00,,,0.00,436.000000,,2013-07-06 14:53:00,
2013-07-06 10:02:00,78.0,64.0,-100.00,South,188,7.0,13.0,62,0.00,,,0.00,633.000000,,2013-07-06 15:02:00,
2013-07-06 10:22:00,78.0,64.0,-100.00,South,188,7.0,13.0,62,0.00,,,0.00,633.000000,,2013-07-06 15:22:00,
2013-07-06 10:34:00,78.0,64.0,-100.00,South,188,7.0,13.0,62,0.00,,,0.00,633.000000,,2013-07-06 15:34:00,
2013-07-06 10:43:00,78.0,64.0,-100.00,South,188,7.0,13.0,62,0.00,,,0.00,633.000000,,2013-07-06 15:43:00,
2013-07-06 10:53:00,78.0,64.0,-100.00,South,188,7.0,13.0,62,0.00,,,0.00,633.000000,,2013-07-06 15:53:00,
2013-07-06 11:02:00,81.0,65.0,-100.00,SSW,197,6.0,16.0,59,0.00,,,0.00,778.000000,,2013-07-06 16:02:00,
2013-07-06 11:30:00,81.0,65.0,-100.00,SSW,197,6.0,16.0,59,0.00,,,0.00,778.000000,,2013-07-06 16:30:00,
2013-07-06 12:02:00,83.0,65.0,-100.00,South,179,7.0,15.0,54,0.00,,,0.00,922.000000,,2013-07-06 17:02:00,
2013-07-06 12:59:00,83.0,65.0,-100.00,South,179,7.0,15.0,54,0.00,,,0.00,922.000000,,2013-07-06 17:59:00,
2013-07-06 13:02:00,85.0,65.0,-100.00,SSW,207,7.0,17.0,51,0.00,,,0.00,906.000000,,2013-07-06 18:02:00,
2013-07-06 13:38:00,85.0,65.0,-100.00,SSW,207,7.0,17.0,51,0.00,,,0.00,906.000000,,2013-07-06 18:38:00,
2013-07-06 14:02:00,86.0,66.0,-100.00,SW,229,5.0,14.0,51,0.00,,,0.00,887.000000,,2013-07-06 19:02:00,
2013-07-06 14:34:00,86.0,66.0,-100.00,SW,229,5.0,14.0,51,0.00,,,0.00,887.000000,,2013-07-06 19:34:00,
2013-07-06 14:49:00,86.0,66.0,-100.00,SW,229,5.0,14.0,51,0.00,,,0.00,887.000000,,2013-07-06 19:49:00,
2013-07-06 15:02:00,82.0,66.0,-100.00,West,273,4.0,14.0,59,0.00,,,0.00,447.000000,,2013-07-06 20:02:00,
2013-07-06 15:36:00,82.0,66.0,-100.00,West,273,4.0,14.0,59,0.00,,,0.00,447.000000,,2013-07-06 20:36:00,
2013-07-06 15:51:00,82.0,66.0,-100.00,West,273,4.0,14.0,59,0.00,,,0.00,447.000000,,2013-07-06 20:51:00,
2013-07-06 16:00:00,82.0,66.0,-100.00,West,273,4.0,14.0,59,0.00,,,0.00,447.000000,,2013-07-06 21:00:00,
2013-07-06 16:37:00,83.0,68.0,-100.00,WNW,292,2.0,10.0,60,0.00,,,0.00,502.000000,,2013-07-06 21:37:00,
2013-07-06 16:49:00,83.0,68.0,-100.00,WNW,292,2.0,10.0,60,0.00,,,0.00,502.000000,,2013-07-06 21:49:00,
2013-07-06 17:00:00,83.0,68.0,-100.00,WNW,292,2.0,10.0,60,0.00,,,0.00,502.000000,,2013-07-06 22:00:00,
2013-07-06 17:02:00,81.0,72.0,-100.00,SW,215,0.0,6.0,74,0.00,,,0.00,233.000000,,2013-07-06 22:02:00,
2013-07-06 17:36:00,81.0,72.0,-100.00,SW,215,0.0,6.0,74,0.00,,,0.00,233.000000,,2013-07-06 22:36:00,
2013-07-06 18:00:00,81.0,72.0,-100.00,SW,215,0.0,6.0,74,0.00,,,0.00,233.000000,,2013-07-06 23:00:00,
2013-07-06 18:02:00,75.0,72.0,-100.00,North,4,0.0,2.0,91,0.00,,,0.00,66.000000,,2013-07-06 23:02:00,
2013-07-06 18:34:00,75.0,72.0,-100.00,North,4,0.0,2.0,91,0.00,,,0.00,66.000000,,2013-07-06 23:34:00,
2013-07-06 18:51:00,75.0,72.0,-100.00,North,4,0.0,2.0,91,0.00,,,0.00,66.000000,,2013-07-06 23:51:00,
2013-07-06 19:02:00,74.0,73.0,-100.00,SSE,149,2.0,4.0,96,0.04,,,0.04,50.000000,,2013-07-07 00:02:00,
2013-07-06 19:59:00,74.0,73.0,-100.00,SSE,149,2.0,4.0,96,0.04,,,0.04,50.000000,,2013-07-07 00:59:00,
2013-07-06 20:02:00,74.0,70.0,-100.00,SSE,151,3.0,5.0,88,0.00,,,0.04,37.000000,,2013-07-07 01:02:00,
2013-07-06 20:49:00,74.0,70.0,-100.00,SSE,151,3.0,5.0,88,0.00,,,0.04,37.000000,,2013-07-07 01:49:00,
2013-07-06 21:43:00,73.0,69.0,-100.00,SE,139,2.0,5.0,86,0.00,,,0.04,4.000000,,2013-07-07 02:43:00,
2013-07-06 22:02:00,72.0,68.0,-100.00,SE,138,3.0,7.0,88,0.01,,,0.05,0.000000,,2013-07-07 03:02:00,
2013-07-06 22:33:00,72.0,68.0,-100.00,SE,138,3.0,7.0,88,0.01,,,0.05,0.000000,,2013-07-07 03:33:00,
2013-07-06 22:43:00,72.0,68.0,-100.00,SE,138,3.0,7.0,88,0.01,,,0.05,0.000000,,2013-07-07 03:43:00,
2013-07-06 23:01:00,72.0,68.0,-100.00,SE,138,3.0,7.0,88,0.01,,,0.05,0.000000,,2013-07-07 04:01:00,
2013-07-06 23:21:00,73.0,68.0,-100.00,SSE,161,5.0,11.0,84,0.00,,,0.05,0.000000,,2013-07-07 04:21:00,
2013-07-06 23:31:00,73.0,68.0,-100.00,SSE,161,5.0,11.0,84,0.00,,,0.05,0.000000,,2013-07-07 04:31:00,
2013-07-06 23:41:00,73.0,68.0,-100.00,SSE,161,5.0,11.0,84,0.00,,,0.05,0.000000,,2013-07-07 04:41:00,
2013-07-06 23:51:00,73.0,68.0,-100.00,SSE,161,5.0,11.0,84,0.00,,,0.05,0.000000,,2013-07-07 04:51:00,